Airfield :
LOGIN :

Register | Disclaimer

   EN    FR    IT 

 










Legend :    VFR   Marginal VFR   IFR   Intensive IFR   Very Intensive IFR
Visi :
Ceiling :
>= 8 km
>= 3000ft
5 to 8 km
1000 to 3000 ft
1500m to 5 km
500 to 1000 ft
800 to 1500m
200 to 500 ft
< 800m
< 200 ft
Symbols :   Thunderstorms  Fog  Heavy snow  Heavy precipitations  Wind > 20 kt
SIGMETs :     Misc.  Thunderstorms  Icing  Turbulence  Mountain Waves  Volcanic Ashes







- Airport Elevation : 14 ft
- IATA code : BRE


EDDW - Bremen Neuenland

CURRENT METAR :
  • 231920Z 26006KT 9999 FEW038 BKN140 09/08 Q1014 NOSIG

EXPIRED METARs :
  • 231850Z 29005KT 9999 -SHRA FEW018 SCT028CB BKN060 09/08 Q1014 NOSIG
  • 231820Z 30011KT 8000 SHRA FEW018 BKN028CB 09/08 Q1013 BECMG NSW
  • 231750Z 28007KT 9999 FEW018 SCT060 BKN110 09/08 Q1012 NOSIG
  • 231720Z 28005KT 9999 FEW018 BKN060 09/08 Q1012 NOSIG
  • 231650Z 33003KT 290V360 9999 -RA FEW018 BKN045 10/08 Q1011 TEMPO BKN012

TAF TAF EDDW
Valid from the 23 at 18:00 until the 24 at 18:00 UTC


231700Z 2318/2418 33005KT 9999 SCT020
TEMPO 2318/2418 32015G35KT 3000 SHRA BKN012CB
BECMG 2405/2407 32012KT
BECMG 2416/2418 32007KT
No reported NOTAMs for that airfield.
2 SIGMETs reported for the Bremen FIR (EDWW) :
 
Severe icing
EDWW SIGMET 3 VALID 231927/232200 EDZH
EDWW BREMEN FIR SEV ICE OBS S OF N5240 AND E OF E01205 FL070/230 MOV ESE NC=
Severe turbulence
EDWW SIGMET 2 VALID 231730/232130 EDZH
EDWW BREMEN FIR SEV TURB FCST SE OF LINE N5202 E00856 - N5243 E01445 FL150/245 MOV E WKN=



MET'MAP, your aeronautical weather chart ! - Copyright ORBIFLY December 2007 - Disclaimer

ORBIFLY MET'MAP TEAM :

Programming & Development : Alexandra Zaïnal
Concept & Development : Baudouin d'Aumeries
Co-Development & Prog : Marc-Olivier Méhu
Technical & hardware support : Manuel Goepfert

Contact : metmap@orbifly.com




SOURCES & CREDITS :

   NOAA